This is the latest recevied weather packets stored in our database for station/object GW1490. If no packets are shown the sender has not sent any weather packets the latest 10 day(s).
| Time | Temp. | Humidity | Pressure | Rain* | Wind** | Luminosity | Snow |
|---|---|---|---|---|---|---|---|
| 1777745574 | 11.67° C | 57% | 997.9 hPa | 0 mm | - | - | - |
| 1777737984 | 11.67° C | 52% | 998.6 hPa | 0 mm | - | - | - |
| 1777735839 | 11.67° C | 51% | 998.9 hPa | 0 mm | - | - | - |
| 1777735453 | 11.11° C | 53% | 998.6 hPa | 0 mm | - | - | - |
| 1777734042 | 11.67° C | 64% | 998.9 hPa | 0 mm | - | - | - |
| 1777732610 | 10° C | 64% | 998.9 hPa | 0 mm | - | - | - |
| 1777727567 | 6.11° C | 99% | 998.9 hPa | 0 mm | - | - | - |
| 1777726834 | 5° C | 99% | 999.3 hPa | 0 mm | - | - | - |
| 1777723604 | 3.89° C | 99% | 998.9 hPa | 0 mm | - | - | - |
| 1777722891 | 4.44° C | 99% | 999.3 hPa | 0 mm | - | - | - |
| 1777722152 | 3.89° C | 99% | 998.9 hPa | 0 mm | - | - | - |
| 1777717127 | 3.33° C | 99% | 998.9 hPa | 0 mm | - | - | - |
| 1777716391 | 3.33° C | 99% | 998.9 hPa | 0 mm | - | - | - |
| 1777705944 | 3.89° C | 99% | 998.3 hPa | 0 mm | - | - | - |
| 1777701647 | 3.33° C | 99% | 998.9 hPa | 0 mm | - | - | - |
| 1777701288 | 3.33° C | 99% | 998.9 hPa | 0 mm | - | - | - |
| 1777699821 | 3.33° C | 99% | 999.3 hPa | 0 mm | - | - | - |
| 1777698388 | 3.33° C | 99% | 998.9 hPa | 0 mm | - | - | - |
| 1777695875 | 4.44° C | 98% | 999.3 hPa | 0 mm | - | - | - |
| 1777691175 | 6.11° C | 93% | 998.9 hPa | 0 mm | - | - | - |
| 1777681112 | 11.67° C | 71% | 996.9 hPa | 0 mm | - | - | - |
| 1777680766 | 11.67° C | 67% | 996.6 hPa | 0 mm | - | - | - |
| 1777679693 | 12.22° C | 72% | 996.2 hPa | 0 mm | - | - | - |
| 1777678973 | 12.22° C | 70% | 995.5 hPa | 0 mm | - | - | - |
| 1777674654 | 13.33° C | 66% | 995.2 hPa | 0 mm | - | - | - |
* Rain since midnight (hover to see other rain measurements)
** Current wind speed in m/s (hover to see current wind gust speed)